Time;durP1;ratioP1;P1;durP2;ratioP2;P2;SDS_P1;SDS_P2;PMS_P1;PMS_P2;Temp;Humidity;BMP_temperature;BMP_pressure;BME280_temperature;BME280_humidity;BME280_pressure;Samples;Min_cycle;Max_cycle;Signal;HPM_P1;HPM_P2
2022/10/31 00:05:10;;;;;;;24.77;18.80;;;;;;;14.31;79.96;100915.81;5091367;28;20471;-72
2022/10/31 00:14:18;;;;;;;36.60;17.95;;;;;;;13.79;80.07;100860.72;5094831;28;20043;-72
2022/10/31 00:17:16;;;;;;;32.92;19.48;;;;;;;14.11;80.53;100943.19;5095236;28;20024;-71
2022/10/31 00:23:04;;;;;;;25.98;18.42;;;;;;;13.62;80.17;100860.81;5095209;28;20116;-72
2022/10/31 00:28:51;;;;;;;26.48;17.75;;;;;;;13.46;79.02;100839.81;5095050;28;20123;-72
2022/10/31 00:34:39;;;;;;;26.00;17.60;;;;;;;14.17;77.56;100942.31;5094324;28;20085;-72
2022/10/31 00:40:26;;;;;;;25.85;18.27;;;;;;;13.96;77.75;100916.03;5094085;28;20430;-73
2022/10/31 00:46:14;;;;;;;31.15;17.17;;;;;;;14.15;77.67;100941.44;5094043;28;20065;-73
2022/10/31 00:52:04;;;;;;;39.72;33.55;;;;;;;13.42;78.77;100839.84;5093837;28;20042;-73
2022/10/31 00:54:37;;;;;;;72.80;58.85;;;;;;;13.92;79.36;100934.50;5093956;28;20089;-72
2022/10/31 00:57:02;;;;;;;;;;;;;;;13.88;80.17;100939.81;5075919;28;20218;-71
2022/10/31 01:02:49;;;;;;;133.82;103.00;;;;;;;13.80;81.01;100949.53;5092153;28;20043;-71
2022/10/31 01:05:15;;;;;;;110.70;86.88;;;;;;;13.73;80.99;100931.09;5075791;28;20024;-71
2022/10/31 01:07:41;;;;;;;99.88;72.55;;;;;;;13.70;81.44;100939.03;5093298;28;20036;-71
2022/10/31 01:13:29;;;;;;;70.38;48.22;;;;;;;13.55;82.08;100917.97;5093513;28;20083;-73
2022/10/31 01:19:16;;;;;;;62.83;43.38;;;;;;;13.52;82.59;100952.28;5090390;28;20536;-71
2022/10/31 01:25:04;;;;;;;39.22;24.45;;;;;;;13.11;83.46;100866.28;5093720;28;20102;-73
2022/10/31 01:30:51;;;;;;;31.02;19.13;;;;;;;13.33;84.29;100934.78;5093161;28;20074;-73
2022/10/31 01:33:45;;;;;;;22.13;15.23;;;;;;;13.43;84.94;100976.91;5070417;28;20032;-72
2022/10/31 01:36:23;;;;;;;23.80;16.35;;;;;;;13.33;85.84;100976.94;5072787;28;20040;-72
2022/10/31 01:42:18;;;;;;;29.33;17.40;;;;;;;12.52;86.57;100867.25;5093154;28;20081;-73
2022/10/31 01:48:10;;;;;;;28.42;16.17;;;;;;;13.20;86.23;100965.50;5092944;28;20411;-72
2022/10/31 01:54:04;;;;;;;24.00;15.18;;;;;;;12.51;87.72;100876.91;5092655;28;20035;-73
2022/10/31 01:59:54;;;;;;;21.77;15.88;;;;;;;12.94;87.98;100958.50;5093048;28;20038;-73
2022/10/31 02:06:34;;;;;;;24.35;17.33;;;;;;;12.99;88.51;100982.22;5092774;28;20527;-73
2022/10/31 02:12:22;;;;;;;22.00;16.70;;;;;;;12.84;88.66;100949.75;5092731;28;20084;-72
2022/10/31 02:18:09;;;;;;;29.58;17.42;;;;;;;12.96;89.11;100982.22;5092731;28;20360;-74
2022/10/31 02:24:14;;;;;;;23.45;17.70;;;;;;;12.81;89.36;100988.38;5094080;28;20381;-73
2022/10/31 02:30:18;;;;;;;25.05;15.85;;;;;;;12.11;89.00;100860.25;5091114;28;20110;-72
2022/10/31 02:33:25;;;;;;;19.77;15.68;;;;;;;13.02;88.54;101001.53;5088841;28;20123;-72
2022/10/31 02:36:18;;;;;;;28.25;17.23;;;;;;;12.28;88.59;100876.91;5093377;28;20472;-72
2022/10/31 02:42:23;;;;;;;25.15;17.85;;;;;;;12.82;88.34;100962.03;5096258;28;20425;-73
2022/10/31 02:48:19;;;;;;;23.48;16.50;;;;;;;12.87;89.00;101006.81;5096337;28;20519;-73
2022/10/31 02:54:22;;;;;;;31.55;15.93;;;;;;;12.73;89.64;101017.31;5095882;28;20051;-73
2022/10/31 03:00:10;;;;;;;26.25;15.75;;;;;;;12.44;90.45;100990.97;5095961;28;20031;-73
2022/10/31 03:03:00;;;;;;;31.83;16.27;;;;;;;12.73;89.76;101019.97;5093902;28;20052;-73
2022/10/31 03:05:49;;;;;;;24.20;16.02;;;;;;;12.87;89.04;101026.13;5073842;28;20066;-73
2022/10/31 03:08:26;;;;;;;26.13;16.58;;;;;;;12.94;89.16;101032.25;5074007;28;20036;-71
2022/10/31 03:14:24;;;;;;;30.88;15.95;;;;;;;12.95;88.40;101039.31;5096449;28;20253;-71
2022/10/31 03:16:51;;;;;;;21.95;13.90;;;;;;;12.92;88.84;101027.88;5095844;28;20020;-71
2022/10/31 03:22:42;;;;;;;26.42;15.50;;;;;;;12.77;89.62;101034.03;5095745;28;20455;-73
2022/10/31 03:28:36;;;;;;;24.15;14.63;;;;;;;11.84;89.40;100933.78;5095508;28;20043;-73
2022/10/31 03:31:04;;;;;;;24.35;15.27;;;;;;;11.68;89.21;100905.69;5077076;28;20134;-72
2022/10/31 03:33:33;;;;;;;22.27;15.32;;;;;;;12.08;89.28;100950.56;5092076;28;20127;-73
2022/10/31 03:36:04;;;;;;;28.40;15.75;;;;;;;12.41;89.69;101039.22;5091014;28;20032;-73
2022/10/31 03:38:31;;;;;;;31.08;16.52;;;;;;;12.48;89.41;101053.28;5090845;28;20129;-72
2022/10/31 03:44:22;;;;;;;27.45;15.00;;;;;;;12.16;90.91;101014.59;5095787;28;20380;-72
2022/10/31 03:46:48;;;;;;;21.45;14.10;;;;;;;11.87;90.12;100946.13;5077333;28;20050;-72
2022/10/31 03:49:15;;;;;;;25.23;16.95;;;;;;;12.50;90.36;101038.34;5089670;28;20036;-71
2022/10/31 03:52:02;;;;;;;20.52;14.57;;;;;;;12.42;90.99;101043.59;5089504;28;20063;-74
2022/10/31 03:54:50;;;;;;;27.05;15.50;;;;;;;12.29;91.55;101048.81;5090486;28;20048;-73
2022/10/31 03:57:33;;;;;;;22.20;14.90;;;;;;;11.48;91.61;100923.16;5089949;28;20052;-72
2022/10/31 04:00:14;;;;;;;21.33;16.13;;;;;;;11.91;91.79;101008.34;5089782;28;20036;-73
2022/10/31 04:02:49;;;;;;;33.00;14.68;;;;;;;12.01;92.06;101035.56;5088301;28;20470;-73
2022/10/31 04:05:17;;;;;;;23.65;14.77;;;;;;;11.43;91.98;100915.25;5090899;28;20781;-73
2022/10/31 04:07:46;;;;;;;28.45;17.85;;;;;;;12.18;92.36;101036.53;5090458;28;20472;-73
2022/10/31 04:10:14;;;;;;;22.92;15.60;;;;;;;11.47;92.44;100924.91;5089906;28;20199;-73
2022/10/31 04:12:43;;;;;;;32.30;17.85;;;;;;;11.58;92.50;100972.25;5067550;28;20418;-73
2022/10/31 04:15:10;;;;;;;23.52;15.43;;;;;;;11.37;92.37;100939.72;5089808;28;20032;-73
2022/10/31 04:17:40;;;;;;;26.25;15.60;;;;;;;11.45;92.23;100929.28;5080934;28;20143;-72
2022/10/31 04:20:06;;;;;;;33.75;16.08;;;;;;;12.06;92.54;101043.47;5074598;28;20034;-73
2022/10/31 04:22:32;;;;;;;29.98;16.83;;;;;;;11.19;93.01;100909.00;5069378;28;20129;-73
2022/10/31 04:24:57;;;;;;;22.10;14.07;;;;;;;11.36;93.03;100952.88;5080421;28;20132;-71
2022/10/31 04:27:28;;;;;;;27.60;14.70;;;;;;;11.91;92.99;101039.91;5085873;28;20064;-71
2022/10/31 04:29:54;;;;;;;31.80;16.73;;;;;;;11.94;93.81;101060.09;5070268;28;20031;-71
2022/10/31 04:32:19;;;;;;;32.92;18.40;;;;;;;11.08;93.97;100929.06;5089236;28;20028;-71
2022/10/31 04:34:44;;;;;;;29.38;17.92;;;;;;;11.75;94.28;101056.44;5091042;28;20081;-71
2022/10/31 04:37:10;;;;;;;25.15;16.02;;;;;;;11.03;94.14;100922.91;5090193;28;20391;-72
2022/10/31 04:39:35;;;;;;;30.38;16.52;;;;;;;10.91;94.58;100897.47;5085857;28;20445;-71
2022/10/31 04:42:01;;;;;;;28.20;16.95;;;;;;;11.25;94.06;100958.06;5088094;28;20361;-72
2022/10/31 04:44:33;;;;;;;25.48;16.90;;;;;;;10.95;94.22;100943.84;5090962;28;20362;-71
2022/10/31 04:47:01;;;;;;;25.52;16.20;;;;;;;10.71;94.61;100922.69;5090961;28;20027;-71
2022/10/31 04:49:26;;;;;;;36.70;16.63;;;;;;;11.62;94.34;101063.41;5089220;28;20040;-71
2022/10/31 04:52:01;;;;;;;28.85;16.58;;;;;;;11.14;93.58;100960.63;5090317;28;20044;-71
2022/10/31 04:54:26;;;;;;;23.02;17.00;;;;;;;11.83;93.41;101065.28;5081844;28;20040;-72
2022/10/31 04:56:51;;;;;;;25.20;15.68;;;;;;;11.82;93.78;101069.66;5066814;28;20036;-70
2022/10/31 04:59:17;;;;;;;35.58;17.90;;;;;;;10.97;94.54;100939.50;5089714;28;20024;-71
2022/10/31 05:01:42;;;;;;;29.95;17.13;;;;;;;10.99;94.29;100956.13;5071591;28;20443;-72
2022/10/31 05:04:08;;;;;;;28.92;17.75;;;;;;;10.89;94.92;100966.59;5071935;28;20082;-72
2022/10/31 05:06:33;;;;;;;27.85;15.68;;;;;;;11.66;94.40;101087.94;5089641;28;20066;-71
2022/10/31 05:08:59;;;;;;;41.78;19.52;;;;;;;10.75;94.40;100951.59;5082178;28;20037;-72
2022/10/31 05:11:24;;;;;;;26.95;17.92;;;;;;;11.63;94.09;101091.44;5070487;28;20028;-72
2022/10/31 05:13:50;;;;;;;30.88;18.15;;;;;;;11.60;93.82;101094.06;5089281;28;20035;-72
2022/10/31 05:16:15;;;;;;;30.85;18.13;;;;;;;11.77;93.21;101095.03;5087988;28;20082;-71
2022/10/31 05:18:40;;;;;;;31.02;19.92;;;;;;;11.88;92.55;101086.38;5088732;28;20093;-71
2022/10/31 05:21:06;;;;;;;29.10;18.77;;;;;;;11.34;93.06;101000.16;5075718;28;20043;-71
2022/10/31 05:23:31;;;;;;;33.03;21.98;;;;;;;11.82;93.65;101074.91;5050721;28;20468;-73
2022/10/31 05:25:57;;;;;;;41.70;21.63;;;;;;;11.83;94.43;101097.69;5051465;28;20046;-71
2022/10/31 05:28:22;;;;;;;39.00;23.35;;;;;;;11.59;94.13;101047.63;5069420;28;20055;-74
2022/10/31 05:30:49;;;;;;;33.13;20.38;;;;;;;11.82;94.25;101088.06;5076605;28;20431;-73
2022/10/31 05:33:14;;;;;;;32.53;19.52;;;;;;;11.19;94.47;100977.28;5072057;28;20440;-72
2022/10/31 05:35:40;;;;;;;42.95;21.40;;;;;;;11.99;94.19;101105.72;5088119;28;20055;-73
2022/10/31 05:38:05;;;;;;;47.25;27.33;;;;;;;12.01;93.59;101107.50;5083861;28;20514;-73
2022/10/31 05:40:37;;;;;;;49.65;30.92;;;;;;;11.95;93.24;101096.06;5087449;28;20036;-73
2022/10/31 05:43:09;;;;;;;55.90;34.85;;;;;;;11.10;93.17;100979.84;5088177;28;20494;-72
2022/10/31 05:45:35;;;;;;;66.57;39.83;;;;;;;11.93;92.94;101111.81;5087740;28;20093;-73
2022/10/31 05:48:01;;;;;;;60.67;43.53;;;;;;;11.62;91.61;101024.84;5087198;28;20400;-74
2022/10/31 05:50:28;;;;;;;69.80;43.40;;;;;;;12.21;90.99;101111.97;5088153;28;21043;-73
2022/10/31 05:52:59;;;;;;;54.47;39.33;;;;;;;12.41;90.86;101131.34;5088276;28;20043;-73
2022/10/31 05:55:25;;;;;;;47.92;34.55;;;;;;;12.50;91.16;101114.69;5056451;28;20045;-73
2022/10/31 05:57:52;;;;;;;61.83;32.78;;;;;;;12.30;91.93;101093.56;5084150;28;20044;-74
2022/10/31 06:00:18;;;;;;;42.88;32.95;;;;;;;12.40;91.79;101126.94;5086999;28;20039;-73
2022/10/31 06:02:44;;;;;;;58.08;35.55;;;;;;;12.45;91.29;101122.59;5087831;28;20168;-73
2022/10/31 06:05:12;;;;;;;51.72;34.40;;;;;;;12.48;90.30;101116.47;5088370;28;20107;-74
2022/10/31 06:07:47;;;;;;;51.58;34.75;;;;;;;12.65;89.57;101122.66;5086865;28;20487;-73
2022/10/31 06:10:12;;;;;;;46.22;32.63;;;;;;;12.76;89.38;101134.94;5091612;28;20047;-72
2022/10/31 06:13:25;;;;;;;48.78;30.67;;;;;;;12.84;88.90;101131.47;5070987;28;20111;-72
2022/10/31 06:19:12;;;;;;;41.67;26.52;;;;;;;12.42;87.24;101033.09;5096200;28;20058;-73
2022/10/31 06:21:37;;;;;;;43.88;20.33;;;;;;;12.60;86.17;101037.50;5095021;28;20093;-73
2022/10/31 06:27:25;;;;;;;33.63;20.55;;;;;;;13.30;86.28;101130.72;5096305;28;20074;-72
2022/10/31 06:33:12;;;;;;;35.22;18.17;;;;;;;13.57;85.86;101145.63;5095837;28;20118;-73
2022/10/31 06:35:38;;;;;;;41.75;16.90;;;;;;;13.90;83.57;101147.34;5095527;28;20063;-73
2022/10/31 06:44:46;;;;;;;27.10;16.45;;;;;;;14.48;81.09;101145.41;5095513;28;20039;-75
2022/10/31 06:50:33;;;;;;;22.35;14.27;;;;;;;14.67;80.38;101147.09;5096610;28;20456;-74
2022/10/31 06:53:16;;;;;;;32.28;15.73;;;;;;;14.66;80.45;101145.38;5096359;28;20107;-72
2022/10/31 06:55:42;;;;;;;28.42;14.48;;;;;;;15.10;78.57;101161.84;5094324;28;20044;-73
2022/10/31 06:58:09;;;;;;;18.85;12.73;;;;;;;15.17;78.51;101171.47;5072856;28;20503;-74
2022/10/31 07:00:35;;;;;;;27.80;14.05;;;;;;;14.64;77.45;101043.25;5090548;28;20082;-73
2022/10/31 07:03:03;;;;;;;17.70;12.95;;;;;;;15.37;76.90;101160.78;5073287;28;20115;-73
2022/10/31 07:05:30;;;;;;;15.75;11.98;;;;;;;15.24;77.51;101138.84;5089498;28;20024;-72
2022/10/31 07:07:59;;;;;;;17.20;11.85;;;;;;;14.92;76.80;101052.72;5055811;28;20044;-73
2022/10/31 07:10:27;;;;;;;13.68;7.90;;;;;;;15.53;76.45;101175.63;5089668;28;20086;-73
2022/10/31 07:12:57;;;;;;;16.63;8.38;;;;;;;14.97;76.40;101055.34;5082079;28;20028;-74
2022/10/31 07:15:28;;;;;;;12.80;8.43;;;;;;;15.06;76.40;101049.97;5070759;28;20190;-72
2022/10/31 07:17:53;;;;;;;17.98;8.30;;;;;;;15.79;76.18;101172.78;5051898;28;20120;-73
2022/10/31 07:20:32;;;;;;;12.00;8.50;;;;;;;15.68;75.24;101137.56;5078434;28;20427;-72
2022/10/31 07:22:58;;;;;;;22.27;8.73;;;;;;;15.93;75.75;101166.50;5091468;28;20028;-74
2022/10/31 07:26:01;;;;;;;14.18;8.45;;;;;;;16.00;75.29;101160.25;5091021;28;20479;-74
2022/10/31 07:28:35;;;;;;;13.38;7.32;;;;;;;16.06;74.62;101148.69;5091694;28;20098;-73
2022/10/31 07:31:00;;;;;;;18.38;8.77;;;;;;;16.45;73.75;101163.25;5091203;28;20109;-73
2022/10/31 07:33:26;;;;;;;17.02;8.10;;;;;;;15.97;74.09;101075.56;5091028;28;20375;-73
2022/10/31 07:35:54;;;;;;;16.08;8.95;;;;;;;15.81;74.48;101065.16;5090762;28;20046;-73
2022/10/31 07:38:19;;;;;;;15.75;7.63;;;;;;;16.32;73.97;101157.25;5090643;28;20022;-72
2022/10/31 07:40:51;;;;;;;10.55;7.00;;;;;;;16.45;74.20;101163.25;5090791;28;20024;-74
2022/10/31 07:43:16;;;;;;;17.25;8.43;;;;;;;16.02;73.71;101066.66;5061345;28;20395;-74
2022/10/31 07:45:54;;;;;;;20.83;7.40;;;;;;;16.53;73.25;101145.50;5070605;28;20032;-74
2022/10/31 07:48:19;;;;;;;17.85;8.93;;;;;;;16.20;72.06;101072.63;5079999;28;20193;-72
2022/10/31 07:50:46;;;;;;;20.10;9.82;;;;;;;16.65;72.07;101144.47;5089917;28;20432;-72
2022/10/31 07:53:13;;;;;;;15.63;8.70;;;;;;;16.94;72.51;101159.13;5073386;28;20036;-73
2022/10/31 07:55:39;;;;;;;26.80;9.55;;;;;;;16.93;72.12;101173.25;5080404;28;20071;-73
2022/10/31 07:58:07;;;;;;;16.85;6.45;;;;;;;16.97;72.85;101180.28;5070279;28;20227;-72
2022/10/31 08:00:34;;;;;;;11.23;6.57;;;;;;;16.96;72.54;101159.97;5072597;28;20481;-73
2022/10/31 08:03:05;;;;;;;12.35;6.43;;;;;;;16.35;71.93;101053.03;5090678;28;20086;-72
2022/10/31 08:05:31;;;;;;;16.52;6.30;;;;;;;16.55;71.52;101088.06;5072548;28;20042;-73
2022/10/31 08:07:57;;;;;;;10.07;6.20;;;;;;;16.02;72.07;100974.03;5071931;28;20032;-73
2022/10/31 08:10:24;;;;;;;14.20;7.63;;;;;;;16.51;70.83;101085.50;5079099;28;20123;-73
2022/10/31 08:13:24;;;;;;;17.35;8.77;;;;;;;17.21;71.15;101189.69;5079337;28;20078;-73
2022/10/31 08:15:51;;;;;;;13.07;6.80;;;;;;;17.14;70.63;101169.41;5069990;28;20064;-73
2022/10/31 08:18:17;;;;;;;11.30;6.35;;;;;;;17.40;70.74;101200.88;5069664;28;20048;-73
2022/10/31 08:20:43;;;;;;;13.45;6.65;;;;;;;17.46;70.30;101188.38;5072953;28;20037;-73
2022/10/31 08:23:31;;;;;;;14.95;7.72;;;;;;;17.46;70.44;101192.81;5069998;28;20020;-73
2022/10/31 08:25:57;;;;;;;16.83;8.00;;;;;;;17.63;69.74;101184.56;5070268;28;20116;-73
2022/10/31 08:28:25;;;;;;;15.05;7.70;;;;;;;17.56;69.11;101196.19;5082495;28;20039;-75
2022/10/31 08:30:51;;;;;;;16.70;7.60;;;;;;;17.36;69.83;101191.22;5077067;28;20040;-74
2022/10/31 08:33:18;;;;;;;11.38;6.03;;;;;;;17.75;69.39;101192.34;5088684;28;20082;-73
2022/10/31 08:35:44;;;;;;;12.68;7.70;;;;;;;16.75;69.42;101071.88;5071496;28;20036;-74
2022/10/31 08:38:11;;;;;;;14.98;7.53;;;;;;;16.97;69.31;101072.44;5072102;28;20035;-73
2022/10/31 08:40:37;;;;;;;12.30;7.95;;;;;;;17.73;68.42;101180.88;5070866;28;20036;-72
2022/10/31 08:43:05;;;;;;;17.33;8.02;;;;;;;17.91;69.10;101175.28;5083974;28;20036;-72
2022/10/31 08:45:33;;;;;;;13.77;7.45;;;;;;;17.40;68.79;101065.56;5079955;28;20105;-72
2022/10/31 08:48:06;;;;;;;18.08;8.80;;;;;;;17.65;67.78;101095.19;5071517;28;20486;-72
2022/10/31 08:50:33;;;;;;;18.07;9.33;;;;;;;18.18;67.58;101180.09;5090612;28;20035;-74
2022/10/31 08:53:16;;;;;;;17.88;7.55;;;;;;;18.09;67.44;101197.06;5089678;28;20111;-73
2022/10/31 08:55:43;;;;;;;19.37;8.27;;;;;;;18.30;67.52;101191.34;5089087;28;20143;-71
2022/10/31 08:58:13;;;;;;;16.42;10.52;;;;;;;17.32;66.87;101056.84;5088821;28;20046;-73
2022/10/31 09:00:39;;;;;;;16.90;9.10;;;;;;;17.90;67.76;101185.91;5085132;28;20487;-73
2022/10/31 09:03:33;;;;;;;27.20;9.30;;;;;;;18.12;67.81;101181.06;5068730;28;20047;-73
2022/10/31 09:09:02;;;;;;;22.90;9.43;;;;;;;18.13;67.39;101180.19;5087990;28;20048;-73
2022/10/31 09:11:30;;;;;;;21.67;8.48;;;;;;;17.98;67.40;101188.41;5089220;28;20020;-74
2022/10/31 09:13:55;;;;;;;14.75;8.80;;;;;;;17.86;67.80;101187.75;5074968;28;20063;-74
2022/10/31 09:16:32;;;;;;;24.95;9.10;;;;;;;17.34;67.38;101069.19;5076907;28;20040;-73
2022/10/31 09:18:57;;;;;;;15.57;9.20;;;;;;;17.41;67.13;101072.63;5087499;28;20127;-73
2022/10/31 09:21:23;;;;;;;16.40;9.32;;;;;;;17.63;67.37;101089.91;5087042;28;20511;-73
2022/10/31 09:24:04;;;;;;;21.05;9.80;;;;;;;18.11;67.07;101163.38;5089373;28;20040;-73
2022/10/31 09:26:33;;;;;;;15.35;9.13;;;;;;;17.59;67.41;101076.72;5089381;28;20028;-73
2022/10/31 09:29:05;;;;;;;15.15;7.97;;;;;;;18.20;66.89;101178.28;5071188;28;20027;-73
2022/10/31 09:31:30;;;;;;;16.75;9.25;;;;;;;18.21;67.27;101182.69;5088046;28;20068;-74
2022/10/31 09:33:56;;;;;;;21.15;9.10;;;;;;;18.02;67.24;101183.03;5085277;28;20387;-73
2022/10/31 09:36:21;;;;;;;20.20;9.52;;;;;;;17.89;67.13;101123.09;5088397;28;20476;-73
2022/10/31 09:38:47;;;;;;;20.35;8.52;;;;;;;18.46;66.80;101183.94;5088296;28;20545;-73
2022/10/31 09:41:15;;;;;;;26.65;10.32;;;;;;;18.61;66.29;101185.41;5070421;28;20016;-73
2022/10/31 09:44:10;;;;;;;18.55;9.82;;;;;;;18.44;65.71;101182.22;5072714;28;20040;-73
2022/10/31 09:47:06;;;;;;;21.20;8.20;;;;;;;18.72;65.47;101185.19;5075720;28;20083;-74
2022/10/31 09:50:09;;;;;;;25.77;10.00;;;;;;;18.74;65.95;101178.94;5069692;28;20112;-75
2022/10/31 09:52:38;;;;;;;17.48;12.38;;;;;;;18.59;65.43;101178.38;5077521;28;20055;-73
2022/10/31 09:55:19;;;;;;;17.80;10.15;;;;;;;18.72;64.63;101175.44;5070931;28;20052;-73
2022/10/31 09:57:52;;;;;;;20.77;10.15;;;;;;;18.91;64.52;101178.59;5068178;28;20107;-72
2022/10/31 10:00:20;;;;;;;20.25;10.00;;;;;;;18.85;65.13;101165.44;5082592;28;20043;-73
2022/10/31 10:03:12;;;;;;;33.60;12.52;;;;;;;18.22;64.27;101068.44;5078930;28;20036;-74
2022/10/31 10:05:50;;;;;;;26.95;12.32;;;;;;;19.04;64.75;101168.56;5088402;28;20036;-73
2022/10/31 10:08:21;;;;;;;29.35;9.55;;;;;;;18.41;64.31;101073.34;5088880;28;20028;-73
2022/10/31 10:11:08;;;;;;;28.70;11.52;;;;;;;19.02;64.39;101177.50;5069944;28;20103;-72
2022/10/31 10:13:33;;;;;;;16.85;10.55;;;;;;;19.06;63.79;101179.16;5086314;28;20043;-72
2022/10/31 10:16:20;;;;;;;13.13;9.15;;;;;;;19.14;64.52;101169.22;5085816;28;20050;-73
2022/10/31 10:19:27;;;;;;;16.98;10.70;;;;;;;19.24;63.63;101167.22;5069410;28;20475;-74
2022/10/31 10:22:04;;;;;;;15.35;8.65;;;;;;;19.29;62.76;101165.31;5069529;28;20040;-73
2022/10/31 10:28:37;;;;;;;16.92;9.27;;;;;;;19.56;62.01;101158.44;5084549;28;20043;-75
2022/10/31 10:31:11;;;;;;;15.32;10.10;;;;;;;19.34;62.12;101145.69;5072145;28;20047;-72
2022/10/31 10:33:46;;;;;;;14.93;9.65;;;;;;;19.04;61.49;101034.69;5089013;28;20039;-74
2022/10/31 10:36:21;;;;;;;14.90;9.55;;;;;;;19.35;62.13;101135.91;5087277;28;20448;-73
2022/10/31 10:38:46;;;;;;;16.52;9.50;;;;;;;19.77;61.36;101141.06;5077595;28;20047;-74
2022/10/31 10:41:18;;;;;;;15.02;9.13;;;;;;;19.97;62.25;101140.53;5089020;28;20171;-73
2022/10/31 10:44:05;;;;;;;15.75;8.80;;;;;;;19.57;60.94;101051.94;5088482;28;20044;-73
2022/10/31 10:50:15;;;;;;;19.15;10.70;;;;;;;20.17;58.57;101132.84;5078665;28;20217;-73
2022/10/31 10:53:09;;;;;;;20.92;9.85;;;;;;;20.36;58.72;101127.00;5087384;28;20032;-73
2022/10/31 10:56:15;;;;;;;15.40;9.07;;;;;;;20.21;59.53;101105.22;5076733;28;20052;-74
2022/10/31 10:58:42;;;;;;;18.08;9.38;;;;;;;20.27;58.83;101108.59;5075516;28;20048;-74
2022/10/31 11:01:13;;;;;;;13.90;10.35;;;;;;;19.86;59.50;101095.56;5079263;28;20036;-73
2022/10/31 11:03:39;;;;;;;15.88;8.75;;;;;;;20.27;58.91;101121.94;5088703;28;20039;-73
2022/10/31 11:06:34;;;;;;;17.40;11.52;;;;;;;20.42;58.41;101117.03;5073279;28;20063;-73
2022/10/31 11:09:08;;;;;;;18.92;10.90;;;;;;;19.97;59.33;101116.56;5071964;28;20040;-73
2022/10/31 11:11:34;;;;;;;18.70;9.70;;;;;;;20.33;58.52;101111.09;5071048;28;20100;-73
2022/10/31 11:14:04;;;;;;;17.20;10.48;;;;;;;19.69;58.63;101016.13;5091360;28;20032;-73
2022/10/31 11:16:34;;;;;;;21.45;9.90;;;;;;;20.50;58.51;101107.94;5091066;28;20384;-73
2022/10/31 11:19:13;;;;;;;15.85;7.72;;;;;;;20.61;57.34;101101.38;5074620;28;20361;-73
2022/10/31 11:21:38;;;;;;;26.77;10.88;;;;;;;20.38;57.00;101035.41;5069846;28;20046;-73
2022/10/31 11:24:04;;;;;;;21.08;10.30;;;;;;;20.78;56.76;101102.66;5091747;28;20118;-72
2022/10/31 11:26:30;;;;;;;26.27;10.82;;;;;;;20.66;57.16;101074.59;5091595;28;20024;-73
2022/10/31 11:28:59;;;;;;;20.50;9.95;;;;;;;20.75;56.83;101092.09;5070512;28;20075;-72
2022/10/31 11:31:26;;;;;;;16.30;10.00;;;;;;;20.71;56.44;101096.63;5082665;28;20531;-73
2022/10/31 11:33:58;;;;;;;18.90;10.80;;;;;;;20.64;57.07;101079.94;5071632;28;20422;-73
2022/10/31 11:36:38;;;;;;;16.83;9.98;;;;;;;20.23;56.43;101006.56;5072464;28;20040;-73
2022/10/31 11:39:14;;;;;;;18.30;10.25;;;;;;;20.55;57.39;101056.22;5083326;28;20060;-73
2022/10/31 11:41:42;;;;;;;15.70;9.38;;;;;;;20.65;56.32;101087.06;5089575;28;20036;-73
2022/10/31 11:44:10;;;;;;;19.17;8.02;;;;;;;20.71;55.93;101079.78;5072778;28;20047;-73
2022/10/31 11:46:40;;;;;;;19.33;9.18;;;;;;;20.78;56.04;101084.84;5090143;28;20040;-73
2022/10/31 11:49:17;;;;;;;13.10;9.00;;;;;;;20.01;57.20;100980.56;5090255;28;20047;-73
2022/10/31 11:51:46;;;;;;;18.30;8.98;;;;;;;20.06;57.02;100987.53;5069222;28;20055;-74
2022/10/31 11:54:25;;;;;;;23.13;8.90;;;;;;;20.04;56.78;100987.56;5089635;28;20139;-72
2022/10/31 11:56:51;;;;;;;13.65;9.32;;;;;;;19.95;56.88;100964.78;5080481;28;20094;-72
2022/10/31 11:59:31;;;;;;;20.67;10.70;;;;;;;19.93;57.19;100974.59;5089325;28;20039;-73
2022/10/31 12:01:59;;;;;;;20.02;10.13;;;;;;;20.07;57.37;100987.50;5089404;28;20456;-73
2022/10/31 12:04:30;;;;;;;16.83;9.80;;;;;;;20.37;57.30;101054.09;5071305;28;20131;-72
2022/10/31 12:06:57;;;;;;;15.40;9.77;;;;;;;20.37;57.10;101036.34;5089085;28;20043;-72
2022/10/31 12:09:29;;;;;;;11.90;9.38;;;;;;;20.01;56.83;100959.22;5071087;28;20047;-72
2022/10/31 12:12:03;;;;;;;24.20;8.82;;;;;;;20.64;56.85;101077.28;5082203;28;20064;-73
2022/10/31 12:14:29;;;;;;;17.85;8.65;;;;;;;20.59;56.58;101063.22;5070043;28;20047;-73
2022/10/31 12:17:15;;;;;;;29.98;11.38;;;;;;;20.44;56.18;101035.22;5085459;28;20463;-73
2022/10/31 12:20:03;;;;;;;18.33;9.70;;;;;;;20.04;57.04;100966.25;5089349;28;20047;-73
2022/10/31 12:22:56;;;;;;;14.32;9.35;;;;;;;20.69;56.45;101073.59;5089449;28;20040;-73
2022/10/31 12:25:50;;;;;;;13.23;8.25;;;;;;;20.75;56.33;101055.63;5089779;28;20139;-73
2022/10/31 12:28:21;;;;;;;21.73;9.80;;;;;;;20.75;56.67;101057.44;5088492;28;20036;-73
2022/10/31 12:30:59;;;;;;;22.10;8.95;;;;;;;20.73;56.62;101060.13;5085890;28;20032;-73
2022/10/31 12:33:47;;;;;;;25.33;8.90;;;;;;;20.71;56.09;101053.09;5089430;28;20045;-73
2022/10/31 12:36:30;;;;;;;30.90;8.45;;;;;;;20.71;55.58;101056.63;5089160;28;20097;-73
2022/10/31 12:39:29;;;;;;;15.50;7.85;;;;;;;20.34;55.38;100983.09;5089831;28;20043;-74
2022/10/31 12:42:20;;;;;;;14.30;8.23;;;;;;;20.81;55.61;101052.78;5089168;28;20039;-73
2022/10/31 12:45:05;;;;;;;17.65;8.25;;;;;;;20.63;55.10;101014.22;5042213;28;20032;-73
2022/10/31 12:47:42;;;;;;;14.70;9.25;;;;;;;20.92;55.01;101051.53;5081834;28;20031;-73
2022/10/31 12:50:46;;;;;;;20.77;8.60;;;;;;;20.88;54.58;101061.41;5090270;28;20093;-73
2022/10/31 12:53:54;;;;;;;13.75;8.02;;;;;;;20.81;54.84;101060.78;5089539;28;20082;-72
2022/10/31 12:56:48;;;;;;;9.90;7.45;;;;;;;20.81;54.47;101062.53;5087849;28;20048;-73
2022/10/31 12:59:48;;;;;;;15.18;6.80;;;;;;;20.84;54.64;101058.00;5054340;28;20052;-72
2022/10/31 13:02:21;;;;;;;21.33;8.43;;;;;;;20.82;54.24;101061.63;5064928;28;20040;-73
2022/10/31 13:04:49;;;;;;;;;;;;;;;20.65;55.50;101057.72;5070491;28;20051;-72
2022/10/31 13:07:41;;;;;;;11.25;7.78;;;;;;;20.61;55.28;101040.06;5068631;28;19912;-72
2022/10/31 13:10:12;;;;;;;17.05;8.50;;;;;;;20.68;55.67;101062.06;5067894;28;20072;-74
2022/10/31 13:13:10;;;;;;;20.52;9.05;;;;;;;20.71;55.61;101059.31;5068131;28;20032;-73
2022/10/31 13:15:47;;;;;;;20.88;8.18;;;;;;;20.73;55.61;101056.59;5067477;28;20060;-72
2022/10/31 13:18:26;;;;;;;16.10;8.70;;;;;;;20.39;55.83;101001.63;5068238;28;20040;-73
2022/10/31 13:20:52;;;;;;;12.32;8.25;;;;;;;20.13;55.16;100957.97;5065928;28;20032;-73
2022/10/31 13:23:30;;;;;;;14.02;8.35;;;;;;;20.72;56.16;101054.84;5051040;28;20078;-73
2022/10/31 13:25:58;;;;;;;14.75;8.40;;;;;;;20.18;55.99;100963.19;5052106;28;20356;-73
2022/10/31 13:29:02;;;;;;;16.63;9.48;;;;;;;20.70;55.94;101064.69;5068661;28;20044;-72
2022/10/31 13:31:27;;;;;;;15.55;8.80;;;;;;;20.54;55.78;101040.28;5067662;28;20051;-75
2022/10/31 13:33:57;;;;;;;15.95;8.32;;;;;;;20.62;55.82;101052.47;5064186;28;20040;-74
2022/10/31 13:36:41;;;;;;;15.73;9.30;;;;;;;20.64;56.22;101060.41;5068236;28;20123;-73
2022/10/31 13:39:17;;;;;;;20.42;9.27;;;;;;;20.68;55.71;101055.88;5068519;28;20497;-72
2022/10/31 13:41:54;;;;;;;23.50;8.90;;;;;;;20.65;55.62;101054.19;5068140;28;20408;-73
2022/10/31 13:44:30;;;;;;;30.95;9.52;;;;;;;20.77;55.04;101058.25;5068069;28;20033;-72
2022/10/31 13:46:58;;;;;;;14.77;8.40;;;;;;;20.18;54.72;100948.09;5050801;28;20036;-73
2022/10/31 13:49:31;;;;;;;16.75;8.82;;;;;;;20.75;55.66;101055.63;5049970;28;20062;-74
2022/10/31 13:52:09;;;;;;;;;;;;;;;20.74;55.17;101053.00;5048402;28;20112;-72
2022/10/31 13:54:37;;;;;;;31.95;11.80;;;;;;;20.69;55.23;101058.47;5047566;28;19948;-74
2022/10/31 13:57:13;;;;;;;17.98;10.00;;;;;;;20.09;55.82;100958.13;5049889;28;20055;-74